sensor_id;sensor_type;location;lat;lon;timestamp;P1;durP1;ratioP1;P2;durP2;ratioP2
20888;SDS011;10604;51.976;7.594;2023-02-22T00:00:20;72.68;;;44.40;;
20888;SDS011;10604;51.976;7.594;2023-02-22T00:02:52;73.80;;;45.58;;
20888;SDS011;10604;51.976;7.594;2023-02-22T00:05:23;75.18;;;44.72;;
20888;SDS011;10604;51.976;7.594;2023-02-22T00:07:50;78.57;;;45.33;;
20888;SDS011;10604;51.976;7.594;2023-02-22T00:10:16;78.87;;;44.03;;
20888;SDS011;10604;51.976;7.594;2023-02-22T00:12:46;78.32;;;46.15;;
20888;SDS011;10604;51.976;7.594;2023-02-22T00:15:16;77.45;;;44.55;;
20888;SDS011;10604;51.976;7.594;2023-02-22T00:17:42;78.25;;;45.97;;
20888;SDS011;10604;51.976;7.594;2023-02-22T00:20:08;78.75;;;45.38;;
20888;SDS011;10604;51.976;7.594;2023-02-22T00:22:38;78.15;;;46.13;;
20888;SDS011;10604;51.976;7.594;2023-02-22T00:25:07;81.78;;;45.97;;
20888;SDS011;10604;51.976;7.594;2023-02-22T00:27:34;75.85;;;45.35;;
20888;SDS011;10604;51.976;7.594;2023-02-22T00:29:59;82.10;;;47.15;;
20888;SDS011;10604;51.976;7.594;2023-02-22T00:32:25;78.87;;;45.80;;
20888;SDS011;10604;51.976;7.594;2023-02-22T00:34:51;75.87;;;46.13;;
20888;SDS011;10604;51.976;7.594;2023-02-22T00:37:18;83.35;;;46.22;;
20888;SDS011;10604;51.976;7.594;2023-02-22T00:39:45;82.07;;;46.30;;
20888;SDS011;10604;51.976;7.594;2023-02-22T00:42:12;81.18;;;45.95;;
20888;SDS011;10604;51.976;7.594;2023-02-22T00:44:38;82.07;;;46.15;;
20888;SDS011;10604;51.976;7.594;2023-02-22T00:47:03;76.47;;;45.43;;
20888;SDS011;10604;51.976;7.594;2023-02-22T00:49:28;84.87;;;45.90;;
20888;SDS011;10604;51.976;7.594;2023-02-22T00:51:54;79.80;;;45.03;;
20888;SDS011;10604;51.976;7.594;2023-02-22T00:54:19;84.57;;;45.57;;
20888;SDS011;10604;51.976;7.594;2023-02-22T00:56:45;77.93;;;45.30;;
20888;SDS011;10604;51.976;7.594;2023-02-22T00:59:11;79.15;;;46.42;;
20888;SDS011;10604;51.976;7.594;2023-02-22T01:01:36;72.93;;;42.97;;
20888;SDS011;10604;51.976;7.594;2023-02-22T01:04:02;77.07;;;44.53;;
20888;SDS011;10604;51.976;7.594;2023-02-22T01:06:27;73.77;;;42.80;;
20888;SDS011;10604;51.976;7.594;2023-02-22T01:08:53;69.38;;;40.95;;
20888;SDS011;10604;51.976;7.594;2023-02-22T01:11:19;77.47;;;42.07;;
20888;SDS011;10604;51.976;7.594;2023-02-22T01:13:46;79.95;;;43.83;;
20888;SDS011;10604;51.976;7.594;2023-02-22T01:16:11;68.72;;;41.90;;
20888;SDS011;10604;51.976;7.594;2023-02-22T01:18:37;70.27;;;41.53;;
20888;SDS011;10604;51.976;7.594;2023-02-22T01:21:02;82.53;;;46.67;;
20888;SDS011;10604;51.976;7.594;2023-02-22T01:23:29;76.68;;;42.55;;
20888;SDS011;10604;51.976;7.594;2023-02-22T01:25:55;79.10;;;42.57;;
20888;SDS011;10604;51.976;7.594;2023-02-22T01:28:20;79.22;;;45.17;;
20888;SDS011;10604;51.976;7.594;2023-02-22T01:30:46;82.32;;;45.40;;
20888;SDS011;10604;51.976;7.594;2023-02-22T01:33:12;79.43;;;43.93;;
20888;SDS011;10604;51.976;7.594;2023-02-22T01:35:40;84.35;;;46.22;;
20888;SDS011;10604;51.976;7.594;2023-02-22T01:38:07;86.10;;;47.00;;
20888;SDS011;10604;51.976;7.594;2023-02-22T01:40:37;84.20;;;46.47;;
20888;SDS011;10604;51.976;7.594;2023-02-22T01:45:47;87.32;;;45.85;;
20888;SDS011;10604;51.976;7.594;2023-02-22T01:53:35;89.45;;;45.28;;
20888;SDS011;10604;51.976;7.594;2023-02-22T01:56:11;93.88;;;45.83;;
20888;SDS011;10604;51.976;7.594;2023-02-22T01:58:37;90.95;;;45.42;;
20888;SDS011;10604;51.976;7.594;2023-02-22T02:01:05;88.35;;;44.97;;
20888;SDS011;10604;51.976;7.594;2023-02-22T02:03:32;102.28;;;46.47;;
20888;SDS011;10604;51.976;7.594;2023-02-22T02:06:02;120.50;;;44.87;;
20888;SDS011;10604;51.976;7.594;2023-02-22T02:11:34;83.07;;;41.85;;
20888;SDS011;10604;51.976;7.594;2023-02-22T02:14:04;93.70;;;43.27;;
20888;SDS011;10604;51.976;7.594;2023-02-22T02:16:34;110.72;;;43.33;;
20888;SDS011;10604;51.976;7.594;2023-02-22T02:19:03;90.82;;;41.65;;
20888;SDS011;10604;51.976;7.594;2023-02-22T02:22:03;101.50;;;42.33;;
20888;SDS011;10604;51.976;7.594;2023-02-22T02:24:50;141.50;;;42.63;;
20888;SDS011;10604;51.976;7.594;2023-02-22T02:32:46;109.88;;;42.70;;
20888;SDS011;10604;51.976;7.594;2023-02-22T02:41:20;84.13;;;39.40;;
20888;SDS011;10604;51.976;7.594;2023-02-22T02:43:52;96.90;;;40.70;;
20888;SDS011;10604;51.976;7.594;2023-02-22T02:46:25;124.77;;;40.00;;
20888;SDS011;10604;51.976;7.594;2023-02-22T02:49:00;107.18;;;38.90;;
20888;SDS011;10604;51.976;7.594;2023-02-22T02:51:36;136.85;;;38.63;;
20888;SDS011;10604;51.976;7.594;2023-02-22T02:54:05;78.70;;;38.72;;
20888;SDS011;10604;51.976;7.594;2023-02-22T02:56:33;84.93;;;36.65;;
20888;SDS011;10604;51.976;7.594;2023-02-22T02:58:58;164.03;;;37.73;;
20888;SDS011;10604;51.976;7.594;2023-02-22T03:06:49;78.70;;;37.90;;
20888;SDS011;10604;51.976;7.594;2023-02-22T03:12:21;93.07;;;36.97;;
20888;SDS011;10604;51.976;7.594;2023-02-22T03:20:40;108.00;;;36.42;;
20888;SDS011;10604;51.976;7.594;2023-02-22T03:26:04;70.75;;;32.80;;
20888;SDS011;10604;51.976;7.594;2023-02-22T03:28:33;104.93;;;32.42;;
20888;SDS011;10604;51.976;7.594;2023-02-22T03:31:10;98.35;;;32.55;;
20888;SDS011;10604;51.976;7.594;2023-02-22T03:33:41;76.72;;;30.50;;
20888;SDS011;10604;51.976;7.594;2023-02-22T03:36:21;147.07;;;33.13;;
20888;SDS011;10604;51.976;7.594;2023-02-22T03:38:49;92.27;;;29.17;;
20888;SDS011;10604;51.976;7.594;2023-02-22T03:41:20;68.60;;;28.38;;
20888;SDS011;10604;51.976;7.594;2023-02-22T03:43:52;74.20;;;30.25;;
20888;SDS011;10604;51.976;7.594;2023-02-22T03:46:25;81.38;;;30.15;;
20888;SDS011;10604;51.976;7.594;2023-02-22T03:51:30;74.70;;;28.73;;
20888;SDS011;10604;51.976;7.594;2023-02-22T03:53:56;87.93;;;27.93;;
20888;SDS011;10604;51.976;7.594;2023-02-22T03:56:24;64.68;;;25.98;;
20888;SDS011;10604;51.976;7.594;2023-02-22T03:59:00;59.67;;;26.55;;
20888;SDS011;10604;51.976;7.594;2023-02-22T04:01:30;49.30;;;25.83;;
20888;SDS011;10604;51.976;7.594;2023-02-22T04:03:55;41.35;;;23.85;;
20888;SDS011;10604;51.976;7.594;2023-02-22T04:06:21;55.40;;;25.83;;
20888;SDS011;10604;51.976;7.594;2023-02-22T04:08:46;58.60;;;26.17;;
20888;SDS011;10604;51.976;7.594;2023-02-22T04:11:11;73.30;;;27.67;;
20888;SDS011;10604;51.976;7.594;2023-02-22T04:13:37;46.92;;;25.92;;
20888;SDS011;10604;51.976;7.594;2023-02-22T04:16:03;44.35;;;25.45;;
20888;SDS011;10604;51.976;7.594;2023-02-22T04:18:28;55.40;;;26.92;;
20888;SDS011;10604;51.976;7.594;2023-02-22T04:20:54;46.40;;;25.23;;
20888;SDS011;10604;51.976;7.594;2023-02-22T04:23:19;50.00;;;25.67;;
20888;SDS011;10604;51.976;7.594;2023-02-22T04:25:45;56.90;;;27.65;;
20888;SDS011;10604;51.976;7.594;2023-02-22T04:28:10;47.70;;;24.73;;
20888;SDS011;10604;51.976;7.594;2023-02-22T04:30:36;64.97;;;25.27;;
20888;SDS011;10604;51.976;7.594;2023-02-22T04:33:01;45.47;;;25.40;;
20888;SDS011;10604;51.976;7.594;2023-02-22T04:35:26;37.23;;;23.60;;
20888;SDS011;10604;51.976;7.594;2023-02-22T04:37:52;50.10;;;23.17;;
20888;SDS011;10604;51.976;7.594;2023-02-22T04:40:17;39.07;;;23.77;;
20888;SDS011;10604;51.976;7.594;2023-02-22T04:42:43;83.57;;;25.80;;
20888;SDS011;10604;51.976;7.594;2023-02-22T04:45:08;78.73;;;24.63;;
20888;SDS011;10604;51.976;7.594;2023-02-22T04:47:37;51.28;;;24.75;;
20888;SDS011;10604;51.976;7.594;2023-02-22T04:50:03;62.92;;;23.73;;
20888;SDS011;10604;51.976;7.594;2023-02-22T04:52:30;45.90;;;22.63;;
20888;SDS011;10604;51.976;7.594;2023-02-22T04:54:55;54.70;;;23.70;;
20888;SDS011;10604;51.976;7.594;2023-02-22T04:57:20;52.17;;;23.17;;
20888;SDS011;10604;51.976;7.594;2023-02-22T04:59:46;47.80;;;23.20;;
20888;SDS011;10604;51.976;7.594;2023-02-22T05:02:11;41.10;;;22.50;;
20888;SDS011;10604;51.976;7.594;2023-02-22T05:04:37;59.05;;;22.35;;
20888;SDS011;10604;51.976;7.594;2023-02-22T05:07:03;42.42;;;22.10;;
20888;SDS011;10604;51.976;7.594;2023-02-22T05:09:29;47.22;;;22.85;;
20888;SDS011;10604;51.976;7.594;2023-02-22T05:11:54;42.43;;;23.03;;
20888;SDS011;10604;51.976;7.594;2023-02-22T05:14:20;44.57;;;23.70;;
20888;SDS011;10604;51.976;7.594;2023-02-22T05:16:47;36.63;;;23.50;;
20888;SDS011;10604;51.976;7.594;2023-02-22T05:19:13;55.67;;;24.30;;
20888;SDS011;10604;51.976;7.594;2023-02-22T05:21:39;38.22;;;23.52;;
20888;SDS011;10604;51.976;7.594;2023-02-22T05:24:05;48.23;;;24.13;;
20888;SDS011;10604;51.976;7.594;2023-02-22T05:26:30;38.88;;;23.45;;
20888;SDS011;10604;51.976;7.594;2023-02-22T05:28:56;135.43;;;26.10;;
20888;SDS011;10604;51.976;7.594;2023-02-22T05:31:21;53.87;;;23.97;;
20888;SDS011;10604;51.976;7.594;2023-02-22T05:33:46;108.75;;;24.70;;
20888;SDS011;10604;51.976;7.594;2023-02-22T05:36:12;43.67;;;23.43;;
20888;SDS011;10604;51.976;7.594;2023-02-22T05:38:37;51.70;;;23.13;;
20888;SDS011;10604;51.976;7.594;2023-02-22T05:41:08;36.22;;;23.10;;
20888;SDS011;10604;51.976;7.594;2023-02-22T05:43:35;53.75;;;22.85;;
20888;SDS011;10604;51.976;7.594;2023-02-22T05:46:01;41.58;;;22.98;;
20888;SDS011;10604;51.976;7.594;2023-02-22T05:48:27;36.97;;;22.20;;
20888;SDS011;10604;51.976;7.594;2023-02-22T05:50:52;48.67;;;23.97;;
20888;SDS011;10604;51.976;7.594;2023-02-22T05:53:17;84.03;;;22.77;;
20888;SDS011;10604;51.976;7.594;2023-02-22T05:55:43;39.27;;;19.50;;
20888;SDS011;10604;51.976;7.594;2023-02-22T05:58:08;37.80;;;20.43;;
20888;SDS011;10604;51.976;7.594;2023-02-22T06:00:33;43.70;;;21.55;;
20888;SDS011;10604;51.976;7.594;2023-02-22T06:03:00;72.37;;;20.40;;
20888;SDS011;10604;51.976;7.594;2023-02-22T06:05:28;44.72;;;21.98;;
20888;SDS011;10604;51.976;7.594;2023-02-22T06:07:54;49.42;;;20.08;;
20888;SDS011;10604;51.976;7.594;2023-02-22T06:10:20;60.97;;;21.30;;
20888;SDS011;10604;51.976;7.594;2023-02-22T06:12:46;49.67;;;19.73;;
20888;SDS011;10604;51.976;7.594;2023-02-22T06:15:13;36.38;;;19.65;;
20888;SDS011;10604;51.976;7.594;2023-02-22T06:17:40;36.35;;;19.73;;
20888;SDS011;10604;51.976;7.594;2023-02-22T06:20:06;38.07;;;19.50;;
20888;SDS011;10604;51.976;7.594;2023-02-22T06:22:33;55.53;;;20.13;;
20888;SDS011;10604;51.976;7.594;2023-02-22T06:24:58;43.60;;;19.63;;
20888;SDS011;10604;51.976;7.594;2023-02-22T06:27:29;28.00;;;19.30;;
20888;SDS011;10604;51.976;7.594;2023-02-22T06:29:55;35.40;;;19.57;;
20888;SDS011;10604;51.976;7.594;2023-02-22T06:32:20;41.40;;;19.33;;
20888;SDS011;10604;51.976;7.594;2023-02-22T06:34:46;47.58;;;19.05;;
20888;SDS011;10604;51.976;7.594;2023-02-22T06:37:12;45.92;;;19.35;;
20888;SDS011;10604;51.976;7.594;2023-02-22T06:39:38;40.47;;;18.90;;
20888;SDS011;10604;51.976;7.594;2023-02-22T06:42:03;40.67;;;18.80;;
20888;SDS011;10604;51.976;7.594;2023-02-22T06:44:29;70.65;;;18.88;;
20888;SDS011;10604;51.976;7.594;2023-02-22T06:46:54;24.60;;;17.00;;
20888;SDS011;10604;51.976;7.594;2023-02-22T06:49:20;29.80;;;17.00;;
20888;SDS011;10604;51.976;7.594;2023-02-22T06:51:45;22.70;;;16.67;;
20888;SDS011;10604;51.976;7.594;2023-02-22T06:54:11;23.23;;;16.70;;
20888;SDS011;10604;51.976;7.594;2023-02-22T06:56:37;37.42;;;17.65;;
20888;SDS011;10604;51.976;7.594;2023-02-22T06:59:03;31.20;;;17.67;;
20888;SDS011;10604;51.976;7.594;2023-02-22T07:01:28;37.97;;;18.53;;
20888;SDS011;10604;51.976;7.594;2023-02-22T07:03:54;44.30;;;17.67;;
20888;SDS011;10604;51.976;7.594;2023-02-22T07:06:20;39.13;;;17.88;;
20888;SDS011;10604;51.976;7.594;2023-02-22T07:08:46;47.43;;;18.37;;
20888;SDS011;10604;51.976;7.594;2023-02-22T07:11:12;21.53;;;17.00;;
20888;SDS011;10604;51.976;7.594;2023-02-22T07:13:38;26.08;;;17.48;;
20888;SDS011;10604;51.976;7.594;2023-02-22T07:16:03;54.40;;;17.90;;
20888;SDS011;10604;51.976;7.594;2023-02-22T07:18:29;39.33;;;18.27;;
20888;SDS011;10604;51.976;7.594;2023-02-22T07:20:54;25.53;;;17.83;;
20888;SDS011;10604;51.976;7.594;2023-02-22T07:23:20;43.17;;;18.33;;
20888;SDS011;10604;51.976;7.594;2023-02-22T07:25:45;37.33;;;17.67;;
20888;SDS011;10604;51.976;7.594;2023-02-22T07:28:11;45.20;;;17.33;;
20888;SDS011;10604;51.976;7.594;2023-02-22T07:30:37;25.85;;;17.48;;
20888;SDS011;10604;51.976;7.594;2023-02-22T07:33:04;26.97;;;15.50;;
20888;SDS011;10604;51.976;7.594;2023-02-22T07:35:32;31.58;;;15.63;;
20888;SDS011;10604;51.976;7.594;2023-02-22T07:38:02;30.95;;;14.35;;
20888;SDS011;10604;51.976;7.594;2023-02-22T07:40:30;22.35;;;15.10;;
20888;SDS011;10604;51.976;7.594;2023-02-22T07:42:57;27.08;;;14.75;;
20888;SDS011;10604;51.976;7.594;2023-02-22T07:45:26;17.75;;;14.43;;
20888;SDS011;10604;51.976;7.594;2023-02-22T07:47:54;23.08;;;14.85;;
20888;SDS011;10604;51.976;7.594;2023-02-22T07:50:20;24.77;;;14.90;;
20888;SDS011;10604;51.976;7.594;2023-02-22T07:52:47;17.10;;;14.35;;
20888;SDS011;10604;51.976;7.594;2023-02-22T07:55:16;33.58;;;13.65;;
20888;SDS011;10604;51.976;7.594;2023-02-22T07:57:46;16.40;;;12.55;;
20888;SDS011;10604;51.976;7.594;2023-02-22T08:00:14;16.37;;;13.47;;
20888;SDS011;10604;51.976;7.594;2023-02-22T08:02:45;16.53;;;13.73;;
20888;SDS011;10604;51.976;7.594;2023-02-22T08:05:10;19.00;;;13.25;;
20888;SDS011;10604;51.976;7.594;2023-02-22T08:07:37;21.05;;;12.88;;
20888;SDS011;10604;51.976;7.594;2023-02-22T08:10:03;19.00;;;13.32;;
20888;SDS011;10604;51.976;7.594;2023-02-22T08:12:31;14.90;;;12.93;;
20888;SDS011;10604;51.976;7.594;2023-02-22T08:14:57;24.55;;;15.43;;
20888;SDS011;10604;51.976;7.594;2023-02-22T08:17:23;19.70;;;17.33;;
20888;SDS011;10604;51.976;7.594;2023-02-22T08:19:48;18.38;;;13.15;;
20888;SDS011;10604;51.976;7.594;2023-02-22T08:22:13;30.23;;;14.03;;
20888;SDS011;10604;51.976;7.594;2023-02-22T08:24:39;16.97;;;14.63;;
20888;SDS011;10604;51.976;7.594;2023-02-22T08:27:04;32.83;;;24.80;;
20888;SDS011;10604;51.976;7.594;2023-02-22T08:29:30;30.33;;;25.58;;
20888;SDS011;10604;51.976;7.594;2023-02-22T08:31:58;24.85;;;20.77;;
20888;SDS011;10604;51.976;7.594;2023-02-22T08:34:24;16.55;;;14.77;;
20888;SDS011;10604;51.976;7.594;2023-02-22T08:36:49;29.13;;;23.55;;
20888;SDS011;10604;51.976;7.594;2023-02-22T08:39:15;22.53;;;17.63;;
20888;SDS011;10604;51.976;7.594;2023-02-22T08:41:40;24.63;;;22.03;;
20888;SDS011;10604;51.976;7.594;2023-02-22T08:44:05;19.63;;;16.80;;
20888;SDS011;10604;51.976;7.594;2023-02-22T08:46:31;13.85;;;12.32;;
20888;SDS011;10604;51.976;7.594;2023-02-22T08:48:56;12.53;;;11.03;;
20888;SDS011;10604;51.976;7.594;2023-02-22T08:51:22;12.40;;;11.10;;
20888;SDS011;10604;51.976;7.594;2023-02-22T08:53:47;12.50;;;10.70;;
20888;SDS011;10604;51.976;7.594;2023-02-22T08:56:13;12.48;;;11.18;;
20888;SDS011;10604;51.976;7.594;2023-02-22T08:58:38;12.43;;;11.20;;
20888;SDS011;10604;51.976;7.594;2023-02-22T09:01:03;11.57;;;10.37;;
20888;SDS011;10604;51.976;7.594;2023-02-22T09:03:29;14.37;;;12.87;;
20888;SDS011;10604;51.976;7.594;2023-02-22T09:05:54;20.05;;;17.60;;
20888;SDS011;10604;51.976;7.594;2023-02-22T09:08:20;21.83;;;18.33;;
20888;SDS011;10604;51.976;7.594;2023-02-22T09:10:45;21.63;;;18.73;;
20888;SDS011;10604;51.976;7.594;2023-02-22T09:13:11;34.45;;;26.70;;
20888;SDS011;10604;51.976;7.594;2023-02-22T09:15:37;18.05;;;15.60;;
20888;SDS011;10604;51.976;7.594;2023-02-22T09:18:04;13.00;;;11.07;;
20888;SDS011;10604;51.976;7.594;2023-02-22T09:20:32;17.03;;;14.40;;
20888;SDS011;10604;51.976;7.594;2023-02-22T09:22:59;12.38;;;11.18;;
20888;SDS011;10604;51.976;7.594;2023-02-22T09:25:27;12.33;;;11.10;;
20888;SDS011;10604;51.976;7.594;2023-02-22T09:27:53;12.13;;;10.93;;
20888;SDS011;10604;51.976;7.594;2023-02-22T09:30:22;12.10;;;10.80;;
20888;SDS011;10604;51.976;7.594;2023-02-22T09:32:50;13.55;;;12.20;;
20888;SDS011;10604;51.976;7.594;2023-02-22T09:35:17;15.90;;;13.00;;
20888;SDS011;10604;51.976;7.594;2023-02-22T09:37:42;13.18;;;11.77;;
20888;SDS011;10604;51.976;7.594;2023-02-22T09:40:13;11.88;;;10.68;;
20888;SDS011;10604;51.976;7.594;2023-02-22T09:42:43;15.38;;;13.32;;
20888;SDS011;10604;51.976;7.594;2023-02-22T09:45:23;13.90;;;11.68;;
20888;SDS011;10604;51.976;7.594;2023-02-22T09:48:00;21.27;;;17.65;;
20888;SDS011;10604;51.976;7.594;2023-02-22T09:50:32;13.43;;;12.02;;
20888;SDS011;10604;51.976;7.594;2023-02-22T09:53:16;13.10;;;11.80;;
20888;SDS011;10604;51.976;7.594;2023-02-22T09:55:47;14.33;;;12.93;;
20888;SDS011;10604;51.976;7.594;2023-02-22T10:00:50;15.00;;;13.33;;
20888;SDS011;10604;51.976;7.594;2023-02-22T10:03:29;13.20;;;11.80;;
20888;SDS011;10604;51.976;7.594;2023-02-22T10:08:33;16.50;;;14.80;;
20888;SDS011;10604;51.976;7.594;2023-02-22T10:16:10;14.90;;;12.50;;
20888;SDS011;10604;51.976;7.594;2023-02-22T10:19:02;17.05;;;15.35;;
20888;SDS011;10604;51.976;7.594;2023-02-22T10:21:55;22.13;;;19.73;;
20888;SDS011;10604;51.976;7.594;2023-02-22T10:24:43;27.40;;;24.50;;
20888;SDS011;10604;51.976;7.594;2023-02-22T10:27:20;14.80;;;13.30;;
20888;SDS011;10604;51.976;7.594;2023-02-22T10:29:55;12.87;;;11.67;;
20888;SDS011;10604;51.976;7.594;2023-02-22T10:32:44;14.35;;;11.43;;
20888;SDS011;10604;51.976;7.594;2023-02-22T10:35:20;13.00;;;11.40;;
20888;SDS011;10604;51.976;7.594;2023-02-22T10:37:48;13.25;;;11.52;;
20888;SDS011;10604;51.976;7.594;2023-02-22T10:40:21;14.02;;;11.45;;
20888;SDS011;10604;51.976;7.594;2023-02-22T10:42:56;12.55;;;10.85;;
20888;SDS011;10604;51.976;7.594;2023-02-22T10:45:32;12.20;;;10.90;;
20888;SDS011;10604;51.976;7.594;2023-02-22T10:48:03;12.70;;;11.07;;
20888;SDS011;10604;51.976;7.594;2023-02-22T10:50:36;12.40;;;11.20;;
20888;SDS011;10604;51.976;7.594;2023-02-22T10:53:04;11.65;;;10.05;;
20888;SDS011;10604;51.976;7.594;2023-02-22T10:55:31;11.68;;;10.55;;
20888;SDS011;10604;51.976;7.594;2023-02-22T10:58:01;12.90;;;11.60;;
20888;SDS011;10604;51.976;7.594;2023-02-22T11:03:02;12.25;;;10.95;;
20888;SDS011;10604;51.976;7.594;2023-02-22T11:05:37;12.50;;;11.00;;
20888;SDS011;10604;51.976;7.594;2023-02-22T11:10:52;12.13;;;10.93;;
20888;SDS011;10604;51.976;7.594;2023-02-22T11:15:53;12.07;;;10.70;;
20888;SDS011;10604;51.976;7.594;2023-02-22T11:18:26;13.30;;;11.35;;
20888;SDS011;10604;51.976;7.594;2023-02-22T11:21:08;12.07;;;10.88;;
20888;SDS011;10604;51.976;7.594;2023-02-22T11:23:36;12.68;;;11.32;;
20888;SDS011;10604;51.976;7.594;2023-02-22T11:26:05;12.98;;;11.38;;
20888;SDS011;10604;51.976;7.594;2023-02-22T11:28:38;12.17;;;10.80;;
20888;SDS011;10604;51.976;7.594;2023-02-22T11:38:57;11.20;;;9.98;;
20888;SDS011;10604;51.976;7.594;2023-02-22T11:41:28;13.05;;;9.95;;
20888;SDS011;10604;51.976;7.594;2023-02-22T11:44:11;12.52;;;10.15;;
20888;SDS011;10604;51.976;7.594;2023-02-22T11:46:51;11.90;;;9.73;;
20888;SDS011;10604;51.976;7.594;2023-02-22T11:49:30;11.38;;;9.30;;
20888;SDS011;10604;51.976;7.594;2023-02-22T12:00:47;11.80;;;10.60;;
20888;SDS011;10604;51.976;7.594;2023-02-22T12:09:02;13.77;;;11.10;;
20888;SDS011;10604;51.976;7.594;2023-02-22T12:19:38;11.77;;;10.67;;
20888;SDS011;10604;51.976;7.594;2023-02-22T12:24:45;12.50;;;11.20;;
20888;SDS011;10604;51.976;7.594;2023-02-22T12:27:23;12.95;;;11.18;;
20888;SDS011;10604;51.976;7.594;2023-02-22T12:29:57;11.93;;;10.73;;
20888;SDS011;10604;51.976;7.594;2023-02-22T12:32:39;12.27;;;9.60;;
20888;SDS011;10604;51.976;7.594;2023-02-22T12:35:11;10.73;;;9.63;;
20888;SDS011;10604;51.976;7.594;2023-02-22T12:40:40;11.68;;;10.35;;
20888;SDS011;10604;51.976;7.594;2023-02-22T12:43:15;11.20;;;9.90;;
20888;SDS011;10604;51.976;7.594;2023-02-22T12:45:56;12.15;;;10.10;;
20888;SDS011;10604;51.976;7.594;2023-02-22T12:48:47;13.35;;;10.55;;
20888;SDS011;10604;51.976;7.594;2023-02-22T12:54:24;10.45;;;9.13;;
20888;SDS011;10604;51.976;7.594;2023-02-22T12:59:49;11.68;;;9.27;;
20888;SDS011;10604;51.976;7.594;2023-02-22T13:02:28;11.57;;;10.10;;
20888;SDS011;10604;51.976;7.594;2023-02-22T13:04:59;11.00;;;9.88;;
20888;SDS011;10604;51.976;7.594;2023-02-22T13:18:28;11.95;;;10.75;;
20888;SDS011;10604;51.976;7.594;2023-02-22T13:21:03;11.77;;;10.52;;
20888;SDS011;10604;51.976;7.594;2023-02-22T13:34:43;12.73;;;9.93;;
20888;SDS011;10604;51.976;7.594;2023-02-22T13:46:01;11.52;;;9.43;;
20888;SDS011;10604;51.976;7.594;2023-02-22T13:52:00;11.25;;;9.55;;
20888;SDS011;10604;51.976;7.594;2023-02-22T13:57:44;10.60;;;9.20;;
20888;SDS011;10604;51.976;7.594;2023-02-22T14:10:58;12.43;;;9.50;;
20888;SDS011;10604;51.976;7.594;2023-02-22T14:13:29;9.52;;;8.05;;
20888;SDS011;10604;51.976;7.594;2023-02-22T14:18:35;10.52;;;8.98;;
20888;SDS011;10604;51.976;7.594;2023-02-22T14:21:06;10.60;;;9.00;;
20888;SDS011;10604;51.976;7.594;2023-02-22T14:23:37;9.48;;;8.48;;
20888;SDS011;10604;51.976;7.594;2023-02-22T14:26:22;10.50;;;9.18;;
20888;SDS011;10604;51.976;7.594;2023-02-22T14:29:13;10.05;;;8.98;;
20888;SDS011;10604;51.976;7.594;2023-02-22T14:34:19;11.80;;;9.43;;
20888;SDS011;10604;51.976;7.594;2023-02-22T14:36:57;9.80;;;8.45;;
20888;SDS011;10604;51.976;7.594;2023-02-22T14:44:51;9.85;;;8.23;;
20888;SDS011;10604;51.976;7.594;2023-02-22T14:47:26;9.32;;;8.15;;
20888;SDS011;10604;51.976;7.594;2023-02-22T14:49:59;9.30;;;8.33;;
20888;SDS011;10604;51.976;7.594;2023-02-22T14:52:31;9.27;;;8.30;;
20888;SDS011;10604;51.976;7.594;2023-02-22T14:58:47;8.57;;;7.72;;
20888;SDS011;10604;51.976;7.594;2023-02-22T15:00:46;10.15;;;8.35;;
20888;SDS011;10604;51.976;7.594;2023-02-22T15:03:32;11.63;;;7.75;;
20888;SDS011;10604;51.976;7.594;2023-02-22T15:06:05;11.10;;;8.90;;
20888;SDS011;10604;51.976;7.594;2023-02-22T15:08:38;11.82;;;8.38;;
20888;SDS011;10604;51.976;7.594;2023-02-22T15:11:10;10.77;;;8.27;;
20888;SDS011;10604;51.976;7.594;2023-02-22T15:13:48;11.20;;;8.05;;
20888;SDS011;10604;51.976;7.594;2023-02-22T15:16:14;10.30;;;8.53;;
20888;SDS011;10604;51.976;7.594;2023-02-22T15:18:44;10.85;;;8.93;;
20888;SDS011;10604;51.976;7.594;2023-02-22T15:21:13;10.73;;;9.63;;
20888;SDS011;10604;51.976;7.594;2023-02-22T15:23:51;12.55;;;9.45;;
20888;SDS011;10604;51.976;7.594;2023-02-22T15:26:33;12.85;;;9.35;;
20888;SDS011;10604;51.976;7.594;2023-02-22T15:29:02;10.57;;;8.93;;
20888;SDS011;10604;51.976;7.594;2023-02-22T15:31:34;12.80;;;9.25;;
20888;SDS011;10604;51.976;7.594;2023-02-22T15:34:23;12.03;;;8.37;;
20888;SDS011;10604;51.976;7.594;2023-02-22T15:36:57;12.45;;;8.80;;
20888;SDS011;10604;51.976;7.594;2023-02-22T15:39:36;11.35;;;9.13;;
20888;SDS011;10604;51.976;7.594;2023-02-22T15:42:14;10.65;;;8.50;;
20888;SDS011;10604;51.976;7.594;2023-02-22T15:44:48;10.63;;;8.68;;
20888;SDS011;10604;51.976;7.594;2023-02-22T15:47:17;10.40;;;8.60;;
20888;SDS011;10604;51.976;7.594;2023-02-22T15:55:27;10.15;;;8.02;;
20888;SDS011;10604;51.976;7.594;2023-02-22T15:57:57;9.23;;;7.72;;
20888;SDS011;10604;51.976;7.594;2023-02-22T16:00:27;10.35;;;7.80;;
20888;SDS011;10604;51.976;7.594;2023-02-22T16:03:16;8.82;;;7.93;;
20888;SDS011;10604;51.976;7.594;2023-02-22T16:05:48;9.40;;;7.72;;
20888;SDS011;10604;51.976;7.594;2023-02-22T16:08:17;8.95;;;7.60;;
20888;SDS011;10604;51.976;7.594;2023-02-22T16:13:27;9.45;;;7.65;;
20888;SDS011;10604;51.976;7.594;2023-02-22T16:15:57;9.43;;;7.70;;
20888;SDS011;10604;51.976;7.594;2023-02-22T16:18:30;8.93;;;7.50;;
20888;SDS011;10604;51.976;7.594;2023-02-22T16:21:06;10.10;;;7.35;;
20888;SDS011;10604;51.976;7.594;2023-02-22T16:28:50;7.97;;;6.97;;
20888;SDS011;10604;51.976;7.594;2023-02-22T16:31:20;10.05;;;7.38;;
20888;SDS011;10604;51.976;7.594;2023-02-22T16:33:49;10.48;;;7.72;;
20888;SDS011;10604;51.976;7.594;2023-02-22T16:36:15;9.63;;;6.87;;
20888;SDS011;10604;51.976;7.594;2023-02-22T16:38:42;9.50;;;7.38;;
20888;SDS011;10604;51.976;7.594;2023-02-22T16:41:11;8.85;;;7.10;;
20888;SDS011;10604;51.976;7.594;2023-02-22T16:43:37;9.43;;;7.78;;
20888;SDS011;10604;51.976;7.594;2023-02-22T16:46:03;10.30;;;7.68;;
20888;SDS011;10604;51.976;7.594;2023-02-22T16:48:31;9.95;;;8.35;;
20888;SDS011;10604;51.976;7.594;2023-02-22T16:50:58;9.45;;;8.20;;
20888;SDS011;10604;51.976;7.594;2023-02-22T16:53:26;10.00;;;8.10;;
20888;SDS011;10604;51.976;7.594;2023-02-22T16:55:56;11.35;;;8.25;;
20888;SDS011;10604;51.976;7.594;2023-02-22T16:58:26;10.77;;;8.10;;
20888;SDS011;10604;51.976;7.594;2023-02-22T17:00:53;10.43;;;9.20;;
20888;SDS011;10604;51.976;7.594;2023-02-22T17:03:21;12.05;;;9.90;;
20888;SDS011;10604;51.976;7.594;2023-02-22T17:05:47;11.73;;;9.20;;
20888;SDS011;10604;51.976;7.594;2023-02-22T17:08:12;12.98;;;8.60;;
20888;SDS011;10604;51.976;7.594;2023-02-22T17:10:40;10.68;;;8.60;;
20888;SDS011;10604;51.976;7.594;2023-02-22T17:13:06;11.30;;;9.18;;
20888;SDS011;10604;51.976;7.594;2023-02-22T17:15:32;9.25;;;8.15;;
20888;SDS011;10604;51.976;7.594;2023-02-22T17:17:59;10.18;;;8.35;;
20888;SDS011;10604;51.976;7.594;2023-02-22T17:20:28;10.98;;;8.80;;
20888;SDS011;10604;51.976;7.594;2023-02-22T17:22:56;9.48;;;8.48;;
20888;SDS011;10604;51.976;7.594;2023-02-22T17:25:22;11.60;;;8.52;;
20888;SDS011;10604;51.976;7.594;2023-02-22T17:27:50;11.02;;;9.00;;
20888;SDS011;10604;51.976;7.594;2023-02-22T17:30:16;10.27;;;8.55;;
20888;SDS011;10604;51.976;7.594;2023-02-22T17:32:42;12.25;;;9.65;;
20888;SDS011;10604;51.976;7.594;2023-02-22T17:35:07;11.83;;;8.57;;